Time;durP1;ratioP1;P1;durP2;ratioP2;P2;SDS_P1;SDS_P2;PMS_P1;PMS_P2;Temp;Humidity;BMP_temperature;BMP_pressure;BME280_temperature;BME280_humidity;BME280_pressure;Samples;Min_cycle;Max_cycle;Signal;HPM_P1;HPM_P2
2022/03/15 04:00:41;;;;;;;10.50;9.50;;;4.30;99.90;;;;;;5757802;23;20453;-77
2022/03/15 04:03:07;;;;;;;10.10;9.20;;;4.30;99.90;;;;;;4952326;29;20186;-77
2022/03/15 04:05:36;;;;;;;11.20;10.03;;;4.30;99.90;;;;;;4941462;29;20235;-77
2022/03/15 04:08:02;;;;;;;12.23;9.73;;;4.30;99.90;;;;;;4935446;29;20229;-77
2022/03/15 04:10:30;;;;;;;10.90;9.90;;;4.30;99.90;;;;;;4933402;29;20179;-77
2022/03/15 04:12:57;;;;;;;13.63;10.67;;;4.30;99.90;;;;;;4925148;29;20178;-76
2022/03/15 04:15:24;;;;;;;9.70;9.00;;;4.30;99.90;;;;;;4937062;29;20189;-77
2022/03/15 04:17:50;;;;;;;11.43;10.37;;;4.30;99.90;;;;;;4935297;29;20187;-77
2022/03/15 04:20:16;;;;;;;11.03;10.03;;;4.30;99.90;;;;;;4935395;29;20182;-76
2022/03/15 04:22:43;;;;;;;11.03;10.23;;;4.30;99.90;;;;;;4936467;29;20197;-75
2022/03/15 04:25:09;;;;;;;11.30;10.40;;;4.30;99.90;;;;;;4936241;29;20226;-75
2022/03/15 04:27:35;;;;;;;15.07;9.80;;;4.30;99.90;;;;;;4934778;29;20246;-76
2022/03/15 04:30:02;;;;;;;10.63;9.73;;;4.30;99.90;;;;;;4936173;29;20206;-75
2022/03/15 04:32:28;;;;;;;11.03;9.87;;;4.30;99.90;;;;;;4936077;29;20206;-76
2022/03/15 04:34:54;;;;;;;10.93;9.47;;;4.20;99.90;;;;;;4935849;29;20193;-75
2022/03/15 04:37:20;;;;;;;11.60;10.40;;;4.20;99.90;;;;;;4935049;29;20187;-75
2022/03/15 04:39:46;;;;;;;11.80;10.70;;;4.20;99.90;;;;;;4936029;29;20186;-75
2022/03/15 04:42:12;;;;;;;12.87;9.37;;;4.20;99.90;;;;;;4934870;29;20210;-75
2022/03/15 04:44:37;;;;;;;9.83;8.93;;;4.20;99.90;;;;;;4936234;29;20232;-75
2022/03/15 04:47:03;;;;;;;10.03;9.17;;;4.10;99.90;;;;;;4934560;29;20566;-75
2022/03/15 04:49:29;;;;;;;11.27;9.17;;;4.10;99.90;;;;;;4933891;29;20183;-77
2022/03/15 04:51:55;;;;;;;9.10;8.40;;;4.10;99.90;;;;;;4932527;29;20217;-77
2022/03/15 04:54:20;;;;;;;9.90;8.80;;;4.10;99.90;;;;;;4935768;29;20643;-77
2022/03/15 04:56:47;;;;;;;10.00;9.00;;;4.10;99.90;;;;;;4930122;29;20190;-78
2022/03/15 04:59:13;;;;;;;9.87;9.07;;;4.10;99.90;;;;;;4915912;29;20191;-77
2022/03/15 05:01:39;;;;;;;9.17;8.23;;;4.20;99.90;;;;;;4916310;29;20225;-77
2022/03/15 05:04:05;;;;;;;10.03;9.13;;;4.20;99.90;;;;;;4917759;29;20214;-77
2022/03/15 05:06:30;;;;;;;10.43;9.20;;;4.20;99.90;;;;;;4916354;29;20222;-77
2022/03/15 05:08:57;;;;;;;10.17;9.17;;;4.10;99.90;;;;;;4920164;29;20185;-77
2022/03/15 05:11:22;;;;;;;10.27;9.30;;;4.10;99.90;;;;;;4934801;29;20214;-77
2022/03/15 05:13:49;;;;;;;11.63;10.20;;;4.10;99.90;;;;;;4934493;29;20179;-77
2022/03/15 05:16:21;;;;;;;10.33;9.53;;;4.20;99.90;;;;;;4936380;29;20182;-70
2022/03/15 05:18:54;;;;;;;9.57;8.77;;;4.20;99.90;;;;;;4935189;29;20209;-70
2022/03/15 05:21:25;;;;;;;9.37;8.57;;;4.20;99.90;;;;;;4935103;29;20213;-69
2022/03/15 05:23:53;;;;;;;10.50;8.83;;;4.20;99.90;;;;;;4935803;29;20197;-70
2022/03/15 05:26:20;;;;;;;10.67;9.77;;;4.20;99.90;;;;;;4934025;29;20218;-69
2022/03/15 05:28:49;;;;;;;11.90;10.70;;;4.10;99.90;;;;;;4933506;29;20182;-69
2022/03/15 05:31:22;;;;;;;11.17;9.87;;;4.10;99.90;;;;;;4934836;29;20212;-69
2022/03/15 05:33:48;;;;;;;12.07;10.87;;;4.10;99.90;;;;;;4934129;29;20183;-69
2022/03/15 05:36:15;;;;;;;11.37;10.37;;;4.10;99.90;;;;;;4934929;29;20256;-69
2022/03/15 05:38:41;;;;;;;11.80;10.60;;;4.10;99.90;;;;;;4934627;29;20556;-69
2022/03/15 05:41:08;;;;;;;11.60;10.57;;;4.10;99.90;;;;;;4933910;29;20230;-69
2022/03/15 05:43:35;;;;;;;12.20;11.17;;;4.10;99.90;;;;;;4935347;29;20190;-69
2022/03/15 05:46:01;;;;;;;12.00;11.00;;;4.10;99.90;;;;;;4924063;29;20262;-69
2022/03/15 05:48:27;;;;;;;13.07;11.87;;;4.20;99.90;;;;;;4915248;29;20190;-69
2022/03/15 05:50:53;;;;;;;12.73;11.53;;;4.10;99.90;;;;;;4915653;29;20195;-69
2022/03/15 05:53:18;;;;;;;13.87;11.53;;;4.20;99.90;;;;;;4915775;29;20191;-70
2022/03/15 05:55:44;;;;;;;13.23;11.27;;;4.20;99.90;;;;;;4914737;29;20194;-70
2022/03/15 05:58:10;;;;;;;12.80;9.50;;;4.30;99.90;;;;;;4915235;29;20191;-71
2022/03/15 06:00:37;;;;;;;11.57;10.40;;;4.30;99.90;;;;;;4915736;29;20549;-70
2022/03/15 06:03:02;;;;;;;11.30;10.20;;;4.30;99.90;;;;;;4914310;29;20667;-69
2022/03/15 06:05:30;;;;;;;10.87;9.77;;;4.40;99.90;;;;;;4915423;29;20215;-69
2022/03/15 06:07:56;;;;;;;10.23;9.37;;;4.40;99.90;;;;;;4915903;29;20655;-71
2022/03/15 06:10:23;;;;;;;10.33;9.47;;;4.50;99.90;;;;;;4917673;29;20190;-70
2022/03/15 06:12:50;;;;;;;10.00;9.10;;;4.50;99.90;;;;;;4914780;29;20187;-69
2022/03/15 06:15:17;;;;;;;12.23;9.93;;;4.50;99.90;;;;;;4915690;29;20187;-70
2022/03/15 06:17:43;;;;;;;18.07;9.30;;;4.60;99.90;;;;;;4917385;29;20282;-69
2022/03/15 06:20:12;;;;;;;13.10;9.30;;;4.60;99.90;;;;;;4915198;29;20551;-69
2022/03/15 06:22:39;;;;;;;10.43;9.43;;;4.70;99.90;;;;;;4915392;29;20190;-70
2022/03/15 06:25:05;;;;;;;12.23;8.90;;;4.70;99.90;;;;;;4915421;29;20233;-69
2022/03/15 06:27:31;;;;;;;13.40;12.10;;;4.80;99.90;;;;;;4913466;29;20187;-69
2022/03/15 06:29:57;;;;;;;14.60;13.37;;;4.80;99.90;;;;;;4915138;29;20186;-69
2022/03/15 06:32:23;;;;;;;15.30;13.83;;;4.70;99.90;;;;;;4915030;29;20213;-68
2022/03/15 06:34:49;;;;;;;15.47;14.17;;;4.70;99.90;;;;;;4915087;29;20176;-68
2022/03/15 06:37:15;;;;;;;12.90;11.70;;;4.80;99.90;;;;;;4913430;29;20257;-69
2022/03/15 06:39:41;;;;;;;13.47;12.30;;;4.90;99.90;;;;;;4913497;29;20197;-68
2022/03/15 06:42:11;;;;;;;14.53;13.07;;;5.00;99.90;;;;;;4913700;29;20213;-69
2022/03/15 06:44:42;;;;;;;26.27;23.20;;;5.10;99.90;;;;;;4913143;29;20277;-72
2022/03/15 06:47:08;;;;;;;20.97;18.97;;;5.20;99.90;;;;;;4931921;29;20190;-69
2022/03/15 06:49:34;;;;;;;15.83;14.07;;;5.30;99.90;;;;;;4933842;29;20306;-69
2022/03/15 06:52:00;;;;;;;14.93;13.30;;;5.50;99.90;;;;;;4933881;29;20209;-69
2022/03/15 06:54:27;;;;;;;15.67;14.20;;;5.50;99.90;;;;;;4932796;29;20178;-69
2022/03/15 06:56:53;;;;;;;17.10;14.60;;;5.60;99.90;;;;;;4933721;29;20182;-68
2022/03/15 06:59:20;;;;;;;16.67;15.30;;;5.70;99.90;;;;;;4932274;29;20261;-68
2022/03/15 07:01:46;;;;;;;17.03;15.63;;;5.70;99.90;;;;;;4933815;29;20213;-69
2022/03/15 07:04:12;;;;;;;16.10;14.53;;;5.70;99.90;;;;;;4932562;29;20674;-70
2022/03/15 07:06:37;;;;;;;13.93;12.60;;;5.80;99.90;;;;;;4933643;29;20206;-69
2022/03/15 07:09:03;;;;;;;13.83;10.17;;;6.00;99.90;;;;;;4933997;29;20185;-70
2022/03/15 07:11:29;;;;;;;11.27;10.07;;;6.20;99.90;;;;;;4933717;29;20240;-69
2022/03/15 07:13:55;;;;;;;14.10;12.83;;;6.40;99.90;;;;;;4918088;29;20213;-70
2022/03/15 07:16:21;;;;;;;11.47;10.27;;;6.50;99.90;;;;;;4913622;29;20407;-69
2022/03/15 07:18:47;;;;;;;16.03;11.43;;;6.60;99.90;;;;;;4913383;29;20278;-69
2022/03/15 07:21:13;;;;;;;12.77;10.30;;;6.70;99.90;;;;;;4914705;29;20238;-69
2022/03/15 07:23:38;;;;;;;12.07;10.67;;;6.80;99.90;;;;;;4914867;29;20179;-70
2022/03/15 07:26:04;;;;;;;11.80;10.60;;;6.90;99.90;;;;;;4914722;29;20215;-69
2022/03/15 07:28:31;;;;;;;11.40;10.20;;;7.00;99.90;;;;;;4914396;29;20235;-70
2022/03/15 07:30:56;;;;;;;14.57;10.60;;;7.00;99.90;;;;;;4914786;29;20209;-69
2022/03/15 07:33:22;;;;;;;12.47;11.23;;;7.20;99.90;;;;;;4913775;29;20277;-70
2022/03/15 07:35:48;;;;;;;13.77;12.37;;;7.30;99.90;;;;;;4914810;29;20190;-70
2022/03/15 07:38:17;;;;;;;11.90;10.53;;;7.40;99.90;;;;;;4914387;29;20190;-70
2022/03/15 07:40:44;;;;;;;11.00;9.90;;;7.40;99.90;;;;;;4913790;29;20206;-70
2022/03/15 07:43:10;;;;;;;10.30;9.37;;;7.40;99.90;;;;;;4915252;29;20186;-69
2022/03/15 07:45:36;;;;;;;11.30;9.60;;;7.40;99.90;;;;;;4913753;29;20214;-70
2022/03/15 07:48:02;;;;;;;11.70;8.83;;;7.30;99.90;;;;;;4913697;29;20186;-69
2022/03/15 07:50:27;;;;;;;10.33;9.43;;;7.40;99.90;;;;;;4914893;29;20262;-69
2022/03/15 07:52:53;;;;;;;10.07;9.07;;;7.50;99.90;;;;;;4915373;29;20274;-70
2022/03/15 07:55:22;;;;;;;11.23;8.27;;;7.60;99.90;;;;;;4916046;29;20183;-70
2022/03/15 07:57:48;;;;;;;9.60;8.63;;;7.70;99.90;;;;;;4917867;29;20183;-70
2022/03/15 08:00:15;;;;;;;10.53;9.47;;;7.80;99.90;;;;;;4918133;29;20270;-70
2022/03/15 08:02:41;;;;;;;12.53;11.00;;;7.80;99.90;;;;;;4918204;29;20210;-70
2022/03/15 08:05:08;;;;;;;15.83;14.23;;;7.80;99.90;;;;;;4918008;29;20210;-70
2022/03/15 08:07:36;;;;;;;16.50;14.93;;;7.90;99.90;;;;;;4917594;29;20238;-70
2022/03/15 08:10:04;;;;;;;17.17;15.67;;;7.90;99.90;;;;;;4916858;29;20193;-70
2022/03/15 08:12:31;;;;;;;14.87;13.23;;;8.00;99.90;;;;;;4916587;29;20207;-70
2022/03/15 08:14:57;;;;;;;13.27;11.63;;;8.20;99.90;;;;;;4916787;29;20275;-70
2022/03/15 08:17:23;;;;;;;12.73;11.40;;;8.30;99.90;;;;;;4917331;29;20187;-69
2022/03/15 08:19:48;;;;;;;12.17;10.97;;;8.50;99.90;;;;;;4917662;29;20194;-70
2022/03/15 08:22:14;;;;;;;12.00;10.80;;;8.50;99.90;;;;;;4917613;29;20624;-69
2022/03/15 08:24:40;;;;;;;12.10;10.77;;;8.60;99.90;;;;;;4916669;29;20183;-70
2022/03/15 08:27:07;;;;;;;12.13;10.93;;;8.70;99.90;;;;;;4917447;29;20179;-70
2022/03/15 08:29:32;;;;;;;13.87;9.33;;;8.90;99.90;;;;;;4917948;29;20367;-71
2022/03/15 08:31:58;;;;;;;13.23;8.87;;;9.10;99.90;;;;;;4917646;29;20195;-70
2022/03/15 08:34:24;;;;;;;11.83;10.07;;;9.30;99.90;;;;;;4917472;29;20767;-70
2022/03/15 08:36:50;;;;;;;14.13;10.90;;;9.40;99.90;;;;;;4916069;29;20183;-71
2022/03/15 08:39:16;;;;;;;12.20;10.97;;;9.50;99.90;;;;;;4917630;29;20198;-70
2022/03/15 08:41:42;;;;;;;14.47;11.43;;;9.90;99.90;;;;;;4917422;29;20203;-70
2022/03/15 08:44:08;;;;;;;13.30;10.60;;;10.30;99.90;;;;;;4917367;29;20651;-70
2022/03/15 08:46:34;;;;;;;10.50;9.40;;;10.50;99.90;;;;;;4916083;29;20215;-69
2022/03/15 08:49:00;;;;;;;10.87;9.37;;;10.80;99.90;;;;;;4916706;29;20182;-70
2022/03/15 08:51:26;;;;;;;11.27;10.17;;;11.10;99.90;;;;;;4917220;29;20207;-70
2022/03/15 08:53:52;;;;;;;10.30;9.20;;;11.20;99.90;;;;;;4917213;29;20180;-70
2022/03/15 08:56:18;;;;;;;10.80;9.90;;;11.20;99.90;;;;;;4917166;29;20186;-71
2022/03/15 08:58:44;;;;;;;11.10;9.97;;;11.10;99.90;;;;;;4916674;29;20187;-70
2022/03/15 09:01:10;;;;;;;11.57;8.93;;;11.20;99.90;;;;;;4916706;29;20219;-70
2022/03/15 09:03:36;;;;;;;10.67;9.67;;;11.30;99.90;;;;;;4917276;29;20246;-70
2022/03/15 09:06:01;;;;;;;10.90;9.43;;;11.40;99.90;;;;;;4916515;29;20211;-71
2022/03/15 09:08:27;;;;;;;10.47;8.57;;;11.50;99.90;;;;;;4917556;29;20892;-71
2022/03/15 09:10:53;;;;;;;13.87;9.10;;;11.60;99.90;;;;;;4918638;29;20209;-71
2022/03/15 09:13:19;;;;;;;9.90;8.80;;;11.70;99.90;;;;;;4918101;29;20188;-70
2022/03/15 09:15:45;;;;;;;11.80;8.53;;;11.90;99.90;;;;;;4917646;29;20195;-70
2022/03/15 09:18:10;;;;;;;8.93;8.07;;;12.00;99.90;;;;;;4918237;29;20211;-71
2022/03/15 09:20:36;;;;;;;14.97;9.00;;;12.00;99.90;;;;;;4916678;29;20213;-70
2022/03/15 09:23:02;;;;;;;9.43;7.93;;;12.00;99.90;;;;;;4915455;29;20664;-70
2022/03/15 09:25:30;;;;;;;11.50;8.30;;;12.00;99.90;;;;;;4915317;29;20214;-70
2022/03/15 09:27:56;;;;;;;10.20;8.13;;;12.10;99.90;;;;;;4916132;29;20214;-70
2022/03/15 09:30:22;;;;;;;12.97;8.33;;;12.10;99.90;;;;;;4915362;29;20187;-70
2022/03/15 09:32:48;;;;;;;10.97;7.87;;;12.20;99.90;;;;;;4915252;29;20188;-70
2022/03/15 09:35:15;;;;;;;9.30;8.33;;;12.20;99.90;;;;;;4916414;29;20226;-70
2022/03/15 09:37:45;;;;;;;9.70;8.70;;;12.30;99.90;;;;;;4916002;29;20191;-70
2022/03/15 09:40:11;;;;;;;19.60;11.93;;;12.20;99.90;;;;;;4916227;29;20195;-70
2022/03/15 09:42:38;;;;;;;9.77;8.33;;;12.20;99.90;;;;;;4916175;29;20187;-70
2022/03/15 09:45:05;;;;;;;13.20;9.13;;;12.20;99.90;;;;;;4915060;29;20226;-70
2022/03/15 09:47:34;;;;;;;14.90;8.57;;;12.20;99.90;;;;;;4915844;29;20180;-70
2022/03/15 09:50:03;;;;;;;9.70;8.70;;;12.30;99.90;;;;;;4916254;29;20179;-70
2022/03/15 09:52:30;;;;;;;10.20;8.17;;;12.30;99.90;;;;;;4916042;29;20215;-70
2022/03/15 09:54:56;;;;;;;9.53;8.63;;;12.30;99.90;;;;;;4914998;29;20273;-67
2022/03/15 09:57:22;;;;;;;11.33;9.30;;;12.30;99.90;;;;;;4914466;29;20199;-66
2022/03/15 09:59:52;;;;;;;9.90;8.90;;;12.00;99.90;;;;;;4914854;29;20183;-66
2022/03/15 10:02:18;;;;;;;13.47;9.27;;;11.80;99.90;;;;;;4915944;29;20642;-67
2022/03/15 10:04:44;;;;;;;9.13;7.70;;;11.70;99.90;;;;;;4915958;29;20548;-67
2022/03/15 10:07:12;;;;;;;10.50;8.50;;;11.70;99.90;;;;;;4915368;29;20198;-70
2022/03/15 10:09:39;;;;;;;10.37;7.83;;;11.70;99.90;;;;;;4918575;29;20183;-70
2022/03/15 10:12:05;;;;;;;10.07;8.37;;;11.70;99.90;;;;;;4920758;29;20222;-70
2022/03/15 10:14:43;;;;;;;14.87;8.17;;;11.80;99.90;;;;;;4946919;23;20270;-74
2022/03/15 10:17:11;;;;;;;16.30;7.90;;;11.80;99.90;;;;;;4928239;29;20191;-74
2022/03/15 10:19:37;;;;;;;8.53;7.67;;;11.70;99.90;;;;;;4913561;29;20186;-73
2022/03/15 10:22:07;;;;;;;12.67;7.73;;;11.80;99.90;;;;;;4932056;29;20190;-73
2022/03/15 10:24:38;;;;;;;11.87;7.67;;;11.80;99.90;;;;;;4933124;29;20261;-73
2022/03/15 10:27:07;;;;;;;8.17;7.37;;;11.80;99.90;;;;;;4934235;29;20214;-73
2022/03/15 10:29:34;;;;;;;9.53;8.53;;;11.70;99.90;;;;;;4933950;29;20186;-74
2022/03/15 10:32:02;;;;;;;9.57;8.27;;;11.70;99.90;;;;;;4934657;29;20182;-73
2022/03/15 10:34:29;;;;;;;9.53;8.13;;;11.70;99.90;;;;;;4914247;29;20851;-73
2022/03/15 10:36:56;;;;;;;12.50;8.20;;;11.70;99.90;;;;;;4901521;29;20191;-72
2022/03/15 10:39:24;;;;;;;9.03;8.23;;;11.70;99.90;;;;;;4894590;29;20721;-73
2022/03/15 10:41:51;;;;;;;8.97;8.10;;;11.80;99.90;;;;;;4895076;29;20191;-73
2022/03/15 10:44:38;;;;;;;9.60;7.63;;;11.80;99.90;;;;;;4896296;29;20210;-73
2022/03/15 10:47:04;;;;;;;8.67;7.77;;;11.90;99.90;;;;;;4898353;29;20235;-72
2022/03/15 10:49:32;;;;;;;8.27;7.47;;;11.90;99.90;;;;;;4898251;29;20179;-73
2022/03/15 10:51:58;;;;;;;11.20;8.57;;;12.00;99.90;;;;;;4895305;29;20188;-73
2022/03/15 10:54:26;;;;;;;9.70;8.73;;;12.10;99.90;;;;;;4895379;29;20696;-73
2022/03/15 10:56:59;;;;;;;10.60;8.33;;;12.30;99.90;;;;;;4901721;29;20205;-73
2022/03/15 10:59:26;;;;;;;9.87;8.07;;;12.40;99.90;;;;;;4896913;29;20223;-73
2022/03/15 11:01:52;;;;;;;14.03;8.00;;;12.30;99.90;;;;;;4908119;29;20185;-73
2022/03/15 11:04:20;;;;;;;8.70;7.80;;;12.40;99.90;;;;;;4933679;29;20210;-73
2022/03/15 11:06:48;;;;;;;9.07;8.37;;;12.30;99.90;;;;;;4933442;29;20425;-73
2022/03/15 11:09:31;;;;;;;8.70;7.90;;;12.30;99.90;;;;;;4926555;29;20202;-73
2022/03/15 11:12:05;;;;;;;10.03;9.03;;;12.30;99.90;;;;;;4912374;29;20265;-72
2022/03/15 11:14:41;;;;;;;10.77;7.73;;;12.20;99.90;;;;;;4913746;29;20305;-73
2022/03/15 11:17:16;;;;;;;8.77;7.43;;;12.00;99.90;;;;;;4914581;29;20277;-73
2022/03/15 11:19:46;;;;;;;9.17;8.00;;;11.80;99.90;;;;;;4914924;29;20193;-73
2022/03/15 11:22:14;;;;;;;10.87;9.77;;;11.60;99.90;;;;;;4913928;29;20273;-73
2022/03/15 11:24:49;;;;;;;11.27;9.27;;;11.50;99.90;;;;;;4914999;29;20234;-73
2022/03/15 11:27:19;;;;;;;14.30;11.53;;;11.50;99.90;;;;;;4913594;29;20187;-73
2022/03/15 11:29:45;;;;;;;10.97;9.80;;;11.60;99.90;;;;;;4915247;29;20183;-73
2022/03/15 11:32:14;;;;;;;9.80;8.87;;;11.60;99.90;;;;;;4918922;29;20187;-74
2022/03/15 11:34:41;;;;;;;10.50;9.37;;;11.50;99.90;;;;;;4918946;29;20202;-73
2022/03/15 11:37:12;;;;;;;9.50;8.37;;;11.50;99.90;;;;;;4917451;29;20183;-73
2022/03/15 11:39:39;;;;;;;9.37;8.53;;;11.40;99.90;;;;;;4919660;29;20191;-73
2022/03/15 11:42:09;;;;;;;10.17;8.93;;;11.40;99.90;;;;;;4918148;29;20194;-73
2022/03/15 11:44:50;;;;;;;12.10;11.07;;;11.40;99.90;;;;;;4921858;29;20210;-73
2022/03/15 11:47:27;;;;;;;11.60;10.03;;;11.30;99.90;;;;;;4933732;29;20194;-73
2022/03/15 11:50:12;;;;;;;9.20;8.23;;;11.00;99.90;;;;;;4918552;29;20532;-74
2022/03/15 11:52:52;;;;;;;16.40;15.10;;;10.70;99.90;;;;;;4918291;29;20191;-74
2022/03/15 11:55:43;;;;;;;13.53;12.67;;;10.70;99.90;;;;;;4918149;29;20214;-73
2022/03/15 11:58:10;;;;;;;11.17;10.27;;;10.70;99.90;;;;;;4918282;29;20187;-73
2022/03/15 12:00:44;;;;;;;10.87;9.90;;;10.70;99.90;;;;;;4918314;29;20183;-74
2022/03/15 12:03:15;;;;;;;10.37;9.47;;;10.80;99.90;;;;;;4917061;29;20186;-74
2022/03/15 12:05:48;;;;;;;10.57;9.60;;;10.90;99.90;;;;;;4917897;29;20222;-74
2022/03/15 12:08:26;;;;;;;11.83;9.47;;;10.90;99.90;;;;;;4916434;29;20187;-74
2022/03/15 12:10:52;;;;;;;13.27;8.67;;;10.90;99.90;;;;;;4918011;29;20187;-75
2022/03/15 12:13:21;;;;;;;12.20;9.00;;;10.90;99.90;;;;;;4917107;29;20706;-74
2022/03/15 12:15:48;;;;;;;9.87;8.87;;;11.00;99.90;;;;;;4910282;29;20195;-74
2022/03/15 12:18:28;;;;;;;9.70;8.73;;;10.90;99.90;;;;;;4898898;29;20719;-75
2022/03/15 12:21:08;;;;;;;10.57;8.63;;;10.90;99.90;;;;;;4900579;29;20191;-74
2022/03/15 12:23:43;;;;;;;10.97;9.23;;;10.90;99.90;;;;;;4936217;29;20186;-75
2022/03/15 12:26:36;;;;;;;9.93;9.13;;;10.90;99.90;;;;;;4935140;29;20209;-74
2022/03/15 12:29:03;;;;;;;10.07;8.87;;;10.90;99.90;;;;;;4932533;29;20194;-75
2022/03/15 12:31:36;;;;;;;14.17;12.67;;;10.80;99.90;;;;;;4936137;29;20635;-75
2022/03/15 12:34:11;;;;;;;13.23;11.03;;;10.80;99.90;;;;;;4925975;29;20255;-75
2022/03/15 12:36:48;;;;;;;11.33;9.40;;;10.80;99.90;;;;;;4917253;29;20190;-70
2022/03/15 12:39:16;;;;;;;17.50;9.77;;;10.80;99.90;;;;;;4898290;29;20199;-69
2022/03/15 12:41:42;;;;;;;11.53;10.00;;;10.80;99.90;;;;;;4897594;29;20921;-69
2022/03/15 12:44:08;;;;;;;11.83;10.63;;;10.70;99.90;;;;;;4898490;29;20207;-69
2022/03/15 12:46:38;;;;;;;15.17;10.57;;;10.60;99.90;;;;;;4898244;29;20660;-69
2022/03/15 12:49:15;;;;;;;16.20;11.57;;;10.60;99.90;;;;;;4897782;29;20187;-68
2022/03/15 12:51:44;;;;;;;11.60;10.47;;;10.60;99.90;;;;;;4898340;29;20239;-68
2022/03/15 12:54:11;;;;;;;12.33;9.93;;;10.60;99.90;;;;;;4898178;29;20207;-69
2022/03/15 12:56:46;;;;;;;11.27;10.13;;;10.70;99.90;;;;;;4897938;29;20261;-68
2022/03/15 12:59:23;;;;;;;11.23;10.20;;;10.80;99.90;;;;;;4896879;29;20243;-69
2022/03/15 13:01:53;;;;;;;12.73;11.50;;;10.70;99.90;;;;;;4897053;29;20190;-68
2022/03/15 13:04:20;;;;;;;11.23;10.23;;;10.70;99.90;;;;;;4896885;29;20215;-68
2022/03/15 13:06:47;;;;;;;11.67;10.47;;;10.70;99.90;;;;;;4897705;29;20638;-68
2022/03/15 13:09:27;;;;;;;10.43;9.40;;;10.60;99.90;;;;;;4896697;29;20274;-68
2022/03/15 13:11:56;;;;;;;9.57;8.73;;;10.60;99.90;;;;;;4898783;29;20187;-73
2022/03/15 13:14:29;;;;;;;11.67;8.70;;;10.60;99.90;;;;;;4896804;29;20216;-73
2022/03/15 13:17:00;;;;;;;11.53;9.17;;;10.50;99.90;;;;;;4896633;29;20199;-73
2022/03/15 13:19:32;;;;;;;10.40;9.00;;;10.60;99.90;;;;;;4896544;29;20199;-74
2022/03/15 13:21:59;;;;;;;13.50;10.03;;;10.60;99.90;;;;;;4897707;29;20196;-74
2022/03/15 13:24:35;;;;;;;11.50;10.17;;;10.60;99.90;;;;;;4896748;29;20891;-74
2022/03/15 13:27:02;;;;;;;11.97;8.83;;;10.70;99.90;;;;;;4897679;29;20223;-74
2022/03/15 13:29:30;;;;;;;9.53;8.73;;;10.70;99.90;;;;;;4896426;29;20560;-74
2022/03/15 13:31:59;;;;;;;10.17;9.17;;;10.70;99.90;;;;;;4897686;29;20195;-74
2022/03/15 13:34:28;;;;;;;9.30;8.50;;;10.70;99.90;;;;;;4902084;29;20215;-74
2022/03/15 13:36:59;;;;;;;11.83;9.27;;;10.70;99.90;;;;;;4916924;29;20342;-74
2022/03/15 13:39:25;;;;;;;11.30;10.10;;;10.70;99.90;;;;;;4919581;29;20191;-73
2022/03/15 13:41:53;;;;;;;11.83;10.57;;;10.60;99.90;;;;;;4932327;29;20189;-74
2022/03/15 13:44:25;;;;;;;14.07;12.47;;;10.60;99.90;;;;;;4900732;29;20280;-74
2022/03/15 13:47:03;;;;;;;12.87;11.57;;;10.60;99.90;;;;;;4907811;29;20268;-74
2022/03/15 13:49:31;;;;;;;12.17;10.97;;;10.60;99.90;;;;;;4915306;29;20323;-74
2022/03/15 13:52:06;;;;;;;13.60;12.40;;;10.60;99.90;;;;;;4915841;29;20182;-74
2022/03/15 13:54:35;;;;;;;18.10;16.70;;;10.50;99.90;;;;;;4915854;29;20218;-73
2022/03/15 13:57:07;;;;;;;21.87;20.10;;;10.50;99.90;;;;;;4914318;29;20556;-74
2022/03/15 13:59:33;;;;;;;27.50;25.40;;;10.40;99.90;;;;;;4915868;29;20187;-74
2022/03/15 14:02:04;;;;;;;29.23;27.17;;;10.40;99.90;;;;;;4915543;29;20205;-73
2022/03/15 14:04:32;;;;;;;23.97;22.37;;;10.30;99.90;;;;;;4915595;29;20210;-73
2022/03/15 14:07:07;;;;;;;20.27;18.57;;;10.20;99.90;;;;;;4914042;29;20258;-74
2022/03/15 14:09:36;;;;;;;16.70;14.93;;;10.10;99.90;;;;;;4915417;29;20183;-74
2022/03/15 14:12:10;;;;;;;17.97;16.27;;;10.10;99.90;;;;;;4915506;29;20234;-74
2022/03/15 14:14:47;;;;;;;17.37;15.63;;;10.10;99.90;;;;;;4915491;29;20225;-74
2022/03/15 14:17:15;;;;;;;17.20;15.80;;;10.10;99.90;;;;;;4915575;29;20250;-73
2022/03/15 14:19:59;;;;;;;22.03;20.30;;;10.00;99.90;;;;;;4915686;29;20250;-73
2022/03/15 14:22:28;;;;;;;19.37;17.80;;;10.10;99.90;;;;;;4915747;29;20187;-73
2022/03/15 14:24:56;;;;;;;17.33;15.80;;;10.10;99.90;;;;;;4914368;29;20639;-74
2022/03/15 14:27:23;;;;;;;19.07;17.13;;;10.10;99.90;;;;;;4915037;29;20201;-72
2022/03/15 14:29:53;;;;;;;23.60;21.77;;;10.10;99.90;;;;;;4915393;29;20183;-73
2022/03/15 14:32:20;;;;;;;20.43;18.47;;;10.20;99.90;;;;;;4914023;29;20226;-72
2022/03/15 14:35:04;;;;;;;21.00;19.27;;;10.40;99.90;;;;;;4915073;29;20759;-72
2022/03/15 14:37:32;;;;;;;25.73;23.70;;;10.40;99.90;;;;;;4908985;29;20183;-73
2022/03/15 14:40:06;;;;;;;25.00;22.93;;;10.50;99.90;;;;;;4915231;29;20190;-73
2022/03/15 14:42:35;;;;;;;22.23;20.20;;;10.60;99.90;;;;;;4913864;29;20193;-73
2022/03/15 14:45:11;;;;;;;17.87;15.87;;;10.60;99.90;;;;;;4907246;29;20278;-73
2022/03/15 14:47:38;;;;;;;17.47;14.77;;;10.70;99.90;;;;;;4906017;29;20814;-72
2022/03/15 14:50:05;;;;;;;21.73;19.93;;;10.60;99.90;;;;;;4915408;29;20636;-73
2022/03/15 14:52:32;;;;;;;20.37;18.33;;;10.60;99.90;;;;;;4930653;29;20263;-73
2022/03/15 14:54:58;;;;;;;22.10;20.00;;;10.60;99.90;;;;;;4933781;29;20742;-73
2022/03/15 14:57:24;;;;;;;21.83;17.67;;;10.70;99.90;;;;;;4932718;29;20278;-73
2022/03/15 14:59:53;;;;;;;18.90;17.00;;;10.60;99.90;;;;;;4932751;29;20178;-74
2022/03/15 15:02:21;;;;;;;18.97;17.57;;;10.60;99.90;;;;;;4932851;29;20186;-74
2022/03/15 15:04:50;;;;;;;16.13;14.53;;;10.60;99.90;;;;;;4919515;29;20207;-74
2022/03/15 15:07:22;;;;;;;15.37;13.77;;;10.60;99.90;;;;;;4919496;29;20300;-74
2022/03/15 15:09:50;;;;;;;19.83;16.57;;;10.70;99.90;;;;;;4915554;29;20758;-74
2022/03/15 15:12:17;;;;;;;21.77;19.63;;;10.60;99.90;;;;;;4905426;29;20535;-74
2022/03/15 15:14:46;;;;;;;19.93;17.07;;;10.50;99.90;;;;;;4920770;29;20239;-74
2022/03/15 15:17:17;;;;;;;14.73;13.10;;;10.40;99.90;;;;;;4919638;29;20209;-74
2022/03/15 15:19:44;;;;;;;17.93;16.40;;;10.50;99.90;;;;;;4922173;29;20205;-74
2022/03/15 15:22:11;;;;;;;29.97;27.63;;;10.40;99.90;;;;;;4941689;29;20233;-74
2022/03/15 15:24:38;;;;;;;36.77;33.30;;;10.40;99.90;;;;;;4920370;29;20207;-74
2022/03/15 15:27:04;;;;;;;53.47;49.27;;;10.30;99.90;;;;;;4919808;29;20211;-73
2022/03/15 15:29:38;;;;;;;51.27;48.23;;;10.20;99.90;;;;;;4921488;29;20179;-74
2022/03/15 15:32:15;;;;;;;56.43;52.77;;;10.10;99.90;;;;;;4920563;29;20183;-74
2022/03/15 15:34:45;;;;;;;41.70;38.83;;;10.00;99.90;;;;;;4921272;29;20253;-74
2022/03/15 15:37:16;;;;;;;29.70;27.40;;;9.90;99.90;;;;;;4920108;29;20186;-73
2022/03/15 15:39:42;;;;;;;26.20;24.10;;;9.90;99.90;;;;;;4920958;29;20640;-73
2022/03/15 15:42:10;;;;;;;20.97;19.10;;;9.90;99.90;;;;;;4919961;29;20194;-74
2022/03/15 15:44:39;;;;;;;18.73;16.90;;;9.90;99.90;;;;;;4921240;29;20220;-73
2022/03/15 15:47:05;;;;;;;18.03;16.53;;;9.90;99.90;;;;;;4920383;29;20218;-74
2022/03/15 15:49:31;;;;;;;16.37;15.00;;;9.90;99.90;;;;;;4920659;29;20608;-73
2022/03/15 15:51:57;;;;;;;13.80;12.70;;;9.90;99.90;;;;;;4920786;29;20186;-73
2022/03/15 15:54:24;;;;;;;14.87;13.37;;;9.90;99.90;;;;;;4920743;29;20203;-73
2022/03/15 15:56:51;;;;;;;15.67;13.83;;;9.90;99.90;;;;;;4919184;29;20192;-73
2022/03/15 15:59:28;;;;;;;20.67;16.30;;;9.90;99.90;;;;;;4919512;29;20731;-73
2022/03/15 16:01:54;;;;;;;15.73;13.73;;;9.90;99.90;;;;;;4920526;29;20246;-73
2022/03/15 16:04:21;;;;;;;19.20;15.63;;;9.90;99.90;;;;;;4920607;29;20221;-73
2022/03/15 16:06:47;;;;;;;16.83;15.17;;;9.90;99.90;;;;;;4918944;29;20237;-73
2022/03/15 16:09:17;;;;;;;16.70;15.03;;;9.90;99.90;;;;;;4920613;29;20183;-74
2022/03/15 16:11:43;;;;;;;16.13;13.67;;;9.90;99.90;;;;;;4920636;29;20187;-73
2022/03/15 16:14:11;;;;;;;15.43;13.20;;;9.90;99.90;;;;;;4943204;23;20560;-73
2022/03/15 16:16:38;;;;;;;15.83;13.60;;;9.90;99.90;;;;;;4936209;29;20198;-72
2022/03/15 16:19:04;;;;;;;14.37;12.97;;;9.90;99.90;;;;;;4935975;29;20193;-73
2022/03/15 16:21:30;;;;;;;16.93;13.37;;;9.80;99.90;;;;;;4935566;29;20186;-73
2022/03/15 16:23:56;;;;;;;14.10;12.77;;;9.80;99.90;;;;;;4937549;29;20187;-73
2022/03/15 16:26:22;;;;;;;15.33;13.87;;;9.80;99.90;;;;;;4935677;29;20222;-73
2022/03/15 16:28:48;;;;;;;16.37;14.87;;;9.70;99.90;;;;;;4935141;29;20179;-73
2022/03/15 16:31:15;;;;;;;16.17;14.70;;;9.70;99.90;;;;;;4936468;29;20208;-74
2022/03/15 16:33:41;;;;;;;19.07;17.07;;;9.70;99.90;;;;;;4936359;29;20187;-74
2022/03/15 16:36:07;;;;;;;18.67;16.90;;;9.70;99.90;;;;;;4936537;29;20706;-73
2022/03/15 16:38:33;;;;;;;31.10;29.03;;;9.80;99.90;;;;;;4936112;29;20270;-73
2022/03/15 16:40:59;;;;;;;28.23;26.47;;;9.80;99.90;;;;;;4936243;29;20194;-72
2022/03/15 16:43:25;;;;;;;17.30;15.87;;;9.80;99.90;;;;;;4935093;29;20197;-72